Time;durP1;ratioP1;P1;durP2;ratioP2;P2;SDS_P1;SDS_P2;PMS_P1;PMS_P2;Temp;Humidity;BMP_temperature;BMP_pressure;BME280_temperature;BME280_humidity;BME280_pressure;Samples;Min_cycle;Max_cycle;Signal;HPM_P1;HPM_P2
2022/10/04 00:01:26;;;;;;;;;;;10.90;99.90;;;;;;4981189;28;19934;-76
2022/10/04 00:04:02;;;;;;;;;;;10.80;99.90;;;;;;4985590;28;19968;-76
2022/10/04 00:06:29;;;;;;;;;;;10.80;99.90;;;;;;4989763;28;20008;-76
2022/10/04 00:08:58;;;;;;;;;;;10.80;99.90;;;;;;4981054;28;19937;-76
2022/10/04 00:11:26;;;;;;;;;;;10.80;99.90;;;;;;4990494;28;19961;-77
2022/10/04 00:13:56;;;;;;;;;;;10.70;99.90;;;;;;4987766;28;19926;-77
2022/10/04 00:16:26;;;;;;;;;;;10.70;99.90;;;;;;4986869;28;20266;-76
2022/10/04 00:19:00;;;;;;;;;;;10.50;99.90;;;;;;4985790;28;20019;-76
2022/10/04 00:21:51;;;;;;;;;;;10.40;99.90;;;;;;4983114;28;19958;-76
2022/10/04 00:24:21;;;;;;;;;;;10.40;99.90;;;;;;4983869;28;19926;-76
2022/10/04 00:27:08;;;;;;;;;;;10.30;99.90;;;;;;4984381;28;20407;-76
2022/10/04 00:29:37;;;;;;;;;;;10.30;99.90;;;;;;4982160;28;19933;-76
2022/10/04 00:32:22;;;;;;;;;;;10.30;99.90;;;;;;4988033;28;19981;-76
2022/10/04 00:34:49;;;;;;;;;;;10.20;99.90;;;;;;4988662;28;19940;-76
2022/10/04 00:37:18;;;;;;;;;;;10.20;99.90;;;;;;4981667;28;20020;-76
2022/10/04 00:39:47;;;;;;;;;;;10.10;99.90;;;;;;4987951;28;19964;-76
2022/10/04 00:42:28;;;;;;;;;;;10.10;99.90;;;;;;4987333;28;19932;-76
2022/10/04 00:44:58;;;;;;;;;;;10.00;99.90;;;;;;4985857;28;19969;-76
2022/10/04 00:47:30;;;;;;;;;;;10.00;99.90;;;;;;4984778;28;19932;-76
2022/10/04 00:50:01;;;;;;;;;;;10.00;99.90;;;;;;4983607;28;20404;-76
2022/10/04 00:52:30;;;;;;;;;;;9.90;99.90;;;;;;4981765;28;19965;-76
2022/10/04 00:54:59;;;;;;;;;;;9.90;99.90;;;;;;4983958;28;20385;-76
2022/10/04 00:57:28;;;;;;;;;;;9.90;99.90;;;;;;4986424;28;20008;-77
2022/10/04 00:59:57;;;;;;;;;;;9.90;99.90;;;;;;4978584;28;20351;-76
2022/10/04 01:02:26;;;;;;;;;;;9.90;99.90;;;;;;4986542;28;19930;-76
2022/10/04 01:04:56;;;;;;;;;;;9.90;99.90;;;;;;4979657;28;20377;-76
2022/10/04 01:07:27;;;;;;;;;;;9.90;99.90;;;;;;4985953;28;19969;-76
2022/10/04 01:09:57;;;;;;;;;;;9.80;99.90;;;;;;4984256;28;19929;-76
2022/10/04 01:12:38;;;;;;;;;;;9.80;99.90;;;;;;4978258;28;19988;-76
2022/10/04 01:15:07;;;;;;;;;;;9.80;99.90;;;;;;4985596;28;19925;-76
2022/10/04 01:17:34;;;;;;;;;;;9.70;99.90;;;;;;4988271;28;19930;-76
2022/10/04 01:20:01;;;;;;;;;;;9.70;99.90;;;;;;4987459;28;19929;-76
2022/10/04 01:22:37;;;;;;;;;;;9.70;99.90;;;;;;4984428;28;19999;-76
2022/10/04 01:25:04;;;;;;;;;;;9.70;99.90;;;;;;4979448;28;19926;-76
2022/10/04 01:27:33;;;;;;;;;;;9.60;99.90;;;;;;4984822;28;19956;-76
2022/10/04 01:30:00;;;;;;;;;;;9.60;99.90;;;;;;4980827;28;19926;-75
2022/10/04 01:32:27;;;;;;;;;;;9.60;99.90;;;;;;4975901;28;19929;-76
2022/10/04 01:34:55;;;;;;;;;;;9.60;99.90;;;;;;4983605;28;19926;-76
2022/10/04 01:37:22;;;;;;;;;;;9.60;99.90;;;;;;4978280;28;19932;-76
2022/10/04 01:39:50;;;;;;;;;;;9.60;99.90;;;;;;4979792;28;19957;-76
2022/10/04 01:42:19;;;;;;;;;;;9.50;99.90;;;;;;4984228;28;19925;-76
2022/10/04 01:44:48;;;;;;;;;;;9.50;99.90;;;;;;4988061;28;19933;-76
2022/10/04 01:47:17;;;;;;;;;;;9.50;99.90;;;;;;4982058;28;20312;-77
2022/10/04 01:49:45;;;;;;;;;;;9.50;99.90;;;;;;4980803;28;19926;-76
2022/10/04 01:52:16;;;;;;;;;;;9.50;99.90;;;;;;4978459;28;19941;-76
2022/10/04 01:54:43;;;;;;;;;;;9.40;99.90;;;;;;4981085;28;19933;-76
2022/10/04 01:57:14;;;;;;;;;;;9.40;99.90;;;;;;4983955;28;19976;-76
2022/10/04 01:59:44;;;;;;;;;;;9.40;99.90;;;;;;4987599;28;19969;-76
2022/10/04 02:02:18;;;;;;;;;;;9.40;99.90;;;;;;4988339;28;20028;-76
2022/10/04 02:04:51;;;;;;;;;;;9.40;99.90;;;;;;4983876;28;20534;-76
2022/10/04 02:07:18;;;;;;;;;;;9.40;99.90;;;;;;5000497;28;19925;-76
2022/10/04 02:09:47;;;;;;;;;;;9.40;99.90;;;;;;4984979;28;19960;-76
2022/10/04 02:12:17;;;;;;;;;;;9.40;99.90;;;;;;4985276;28;19926;-76
2022/10/04 02:14:47;;;;;;;;;;;9.30;99.90;;;;;;4978785;28;19926;-77
2022/10/04 02:17:14;;;;;;;;;;;9.30;99.90;;;;;;4982666;28;20366;-76
2022/10/04 02:19:41;;;;;;;;;;;9.30;99.90;;;;;;4986823;28;19926;-76
2022/10/04 02:22:09;;;;;;;;;;;9.30;99.90;;;;;;4983160;28;19933;-76
2022/10/04 02:24:38;;;;;;;;;;;9.30;99.90;;;;;;4984004;28;20364;-76
2022/10/04 02:27:05;;;;;;;;;;;9.30;99.90;;;;;;4991992;28;19926;-76
2022/10/04 02:29:34;;;;;;;;;;;9.30;99.90;;;;;;4985837;28;19933;-76
2022/10/04 02:34:46;;;;;;;;;;;9.20;99.90;;;;;;4987714;28;20388;-76
2022/10/04 02:37:14;;;;;;;;;;;9.30;99.90;;;;;;4994938;28;20032;-76
2022/10/04 02:39:43;;;;;;;;;;;9.30;99.90;;;;;;4989586;28;19926;-76
2022/10/04 02:42:12;;;;;;;;;;;9.20;99.90;;;;;;4987874;28;20299;-76
2022/10/04 02:44:44;;;;;;;;;;;9.20;99.90;;;;;;4989372;28;19929;-76
2022/10/04 02:47:13;;;;;;;;;;;9.20;99.90;;;;;;4989965;28;19991;-76
2022/10/04 02:49:44;;;;;;;;;;;9.20;99.90;;;;;;5004498;28;19926;-76
2022/10/04 02:52:15;;;;;;;;;;;9.20;99.90;;;;;;4984801;28;20259;-76
2022/10/04 02:54:44;;;;;;;;;;;9.20;99.90;;;;;;4988032;28;20368;-76
2022/10/04 02:57:16;;;;;;;;;;;9.20;99.90;;;;;;4990676;28;19930;-76
2022/10/04 02:59:44;;;;;;;;;;;9.20;99.90;;;;;;4990568;28;19933;-76
2022/10/04 03:02:21;;;;;;;;;;;9.20;99.90;;;;;;4984829;28;19956;-76
2022/10/04 03:04:48;;;;;;;;;;;9.10;99.90;;;;;;4991006;28;20029;-76
2022/10/04 03:07:15;;;;;;;;;;;9.10;99.90;;;;;;4993137;28;19954;-76
2022/10/04 03:09:42;;;;;;;;;;;9.10;99.90;;;;;;4987621;28;20383;-76
2022/10/04 03:12:11;;;;;;;;;;;9.10;99.90;;;;;;4989139;28;19934;-76
2022/10/04 03:14:38;;;;;;;;;;;9.00;99.90;;;;;;4990637;28;20404;-76
2022/10/04 03:17:07;;;;;;;;;;;9.00;99.90;;;;;;4989522;28;20032;-76
2022/10/04 03:19:36;;;;;;;;;;;9.00;99.90;;;;;;4989976;28;19926;-76
2022/10/04 03:22:07;;;;;;;;;;;9.00;99.90;;;;;;4987397;28;20803;-75
2022/10/04 03:24:35;;;;;;;;;;;9.00;99.90;;;;;;4987434;28;20404;-76
2022/10/04 03:27:03;;;;;;;;;;;9.00;99.90;;;;;;4984738;28;20033;-76
2022/10/04 03:29:32;;;;;;;;;;;8.90;99.90;;;;;;4984777;28;19930;-76
2022/10/04 03:32:00;;;;;;;;;;;9.00;99.90;;;;;;4989589;28;19925;-76
2022/10/04 03:34:33;;;;;;;;;;;8.90;99.90;;;;;;4998756;28;20024;-76
2022/10/04 03:37:00;;;;;;;;;;;8.90;99.90;;;;;;4987460;28;20477;-77
2022/10/04 03:39:29;;;;;;;;;;;8.90;99.90;;;;;;4986542;28;19962;-76
2022/10/04 03:41:57;;;;;;;;;;;8.90;99.90;;;;;;4987950;28;19926;-76
2022/10/04 03:44:24;;;;;;;;;;;8.90;99.90;;;;;;4983447;28;19934;-76
2022/10/04 03:46:51;;;;;;;;;;;8.90;99.90;;;;;;4989833;28;20004;-75
2022/10/04 03:49:21;;;;;;;;;;;8.90;99.90;;;;;;4977571;28;19926;-77
2022/10/04 03:51:51;;;;;;;;;;;8.80;99.90;;;;;;4980504;28;19968;-77
2022/10/04 03:54:18;;;;;;;;;;;8.80;99.90;;;;;;4994886;28;19957;-76
2022/10/04 03:56:45;;;;;;;;;;;8.80;99.90;;;;;;4984569;28;19925;-75
2022/10/04 03:59:13;;;;;;;;;;;8.80;99.90;;;;;;4983813;28;20024;-76
2022/10/04 04:01:42;;;;;;;;;;;8.90;99.90;;;;;;4978238;28;19930;-76
2022/10/04 04:04:17;;;;;;;;;;;8.80;99.90;;;;;;4976033;28;19937;-77
2022/10/04 04:06:48;;;;;;;;;;;8.80;99.90;;;;;;4976345;28;19969;-76
2022/10/04 04:09:20;;;;;;;;;;;8.70;99.90;;;;;;4977966;28;19927;-76
2022/10/04 04:11:48;;;;;;;;;;;8.60;99.90;;;;;;4985310;28;19930;-77
2022/10/04 04:14:20;;;;;;;;;;;8.60;99.90;;;;;;4980853;28;19932;-77
2022/10/04 04:16:47;;;;;;;;;;;8.60;99.90;;;;;;4988578;28;20050;-77
2022/10/04 04:19:16;;;;;;;;;;;8.60;99.90;;;;;;4985871;28;20388;-77
2022/10/04 04:21:44;;;;;;;;;;;8.60;99.90;;;;;;4981318;28;20375;-76
2022/10/04 04:24:14;;;;;;;;;;;8.60;99.90;;;;;;4978989;28;19969;-77
2022/10/04 04:26:45;;;;;;;;;;;8.60;99.90;;;;;;4978305;28;19937;-76
2022/10/04 04:29:17;;;;;;;;;;;8.60;99.90;;;;;;4987162;28;20062;-77
2022/10/04 04:31:45;;;;;;;;;;;8.50;99.90;;;;;;4976120;28;19986;-76
2022/10/04 04:34:16;;;;;;;;;;;8.60;99.90;;;;;;4987347;28;19956;-76
2022/10/04 04:36:43;;;;;;;;;;;8.50;99.90;;;;;;4981565;28;19934;-76
2022/10/04 04:42:00;;;;;;;;;;;8.60;99.90;;;;;;4985434;28;19959;-75
2022/10/04 04:44:29;;;;;;;;;;;8.50;99.90;;;;;;4988995;28;20016;-84
2022/10/04 04:46:59;;;;;;;;;;;8.50;99.90;;;;;;4985498;28;20446;-76
2022/10/04 04:49:27;;;;;;;;;;;8.40;99.90;;;;;;4991294;28;19933;-77
2022/10/04 04:51:54;;;;;;;;;;;8.40;99.90;;;;;;4987127;28;19934;-80
2022/10/04 04:54:23;;;;;;;;;;;8.50;99.90;;;;;;4984520;28;20000;-84
2022/10/04 04:56:51;;;;;;;;;;;8.50;99.90;;;;;;4990672;28;19932;-79
2022/10/04 04:59:20;;;;;;;;;;;8.50;99.90;;;;;;4990202;28;19929;-77
2022/10/04 05:01:49;;;;;;;;;;;8.50;99.90;;;;;;4986492;28;19984;-77
2022/10/04 05:04:18;;;;;;;;;;;8.40;99.90;;;;;;4980967;28;19926;-76
2022/10/04 05:06:46;;;;;;;;;;;8.40;99.90;;;;;;4990643;28;19969;-85
2022/10/04 05:09:22;;;;;;;;;;;8.40;99.90;;;;;;4988691;28;19926;-77
2022/10/04 05:11:50;;;;;;;;;;;8.40;99.90;;;;;;4985830;28;19930;-78
2022/10/04 05:14:18;;;;;;;;;;;8.40;99.90;;;;;;4983224;28;20280;-77
2022/10/04 05:16:48;;;;;;;;;;;8.40;99.90;;;;;;4986929;28;19925;-77
2022/10/04 05:19:17;;;;;;;;;;;8.40;99.90;;;;;;4991180;28;20008;-87
2022/10/04 05:21:46;;;;;;;;;;;8.40;99.90;;;;;;4989342;28;20345;-76
2022/10/04 05:24:14;;;;;;;;;;;8.40;99.90;;;;;;4984429;28;20400;-85
2022/10/04 05:26:41;;;;;;;;;;;8.30;99.90;;;;;;4980766;28;20395;-76
2022/10/04 05:29:09;;;;;;;;;;;8.30;99.90;;;;;;4976873;28;20473;-77
2022/10/04 05:31:45;;;;;;;;;;;8.30;99.90;;;;;;4975147;28;19934;-77
2022/10/04 05:34:22;;;;;;;;;;;8.30;99.90;;;;;;4980765;28;19933;-77
2022/10/04 05:37:09;;;;;;;;;;;8.30;99.90;;;;;;4994213;28;20379;-82
2022/10/04 05:39:39;;;;;;;;;;;8.30;99.90;;;;;;4980417;28;19925;-78
2022/10/04 05:42:11;;;;;;;;;;;8.30;99.90;;;;;;4978479;28;20023;-77
2022/10/04 05:44:45;;;;;;;;;;;8.20;99.90;;;;;;4984794;28;19926;-76
2022/10/04 05:47:14;;;;;;;;;;;8.20;99.90;;;;;;4987552;28;19926;-77
2022/10/04 05:49:43;;;;;;;;;;;8.30;99.90;;;;;;4982857;28;19926;-77
2022/10/04 05:52:14;;;;;;;;;;;8.20;99.90;;;;;;4983561;28;20207;-77
2022/10/04 05:54:40;;;;;;;;;;;8.30;99.90;;;;;;4980623;28;20140;-77
2022/10/04 05:57:19;;;;;;;;;;;8.20;99.90;;;;;;4984404;28;19926;-77
2022/10/04 06:00:09;;;;;;;;;;;8.20;99.90;;;;;;4996843;28;19937;-77
2022/10/04 06:02:54;;;;;;;;;;;8.30;99.90;;;;;;4970285;28;19926;-77
2022/10/04 06:05:29;;;;;;;;;;;8.30;99.90;;;;;;4989567;28;20012;-76
2022/10/04 06:07:58;;;;;;;;;;;8.20;99.90;;;;;;4987327;28;20009;-78
2022/10/04 06:10:34;;;;;;;;;;;8.20;99.90;;;;;;4987099;28;19937;-77
2022/10/04 06:13:04;;;;;;;;;;;8.20;99.90;;;;;;4975268;28;19989;-77
2022/10/04 06:15:45;;;;;;;;;;;8.20;99.90;;;;;;4985137;28;19981;-78
2022/10/04 06:18:21;;;;;;;;;;;8.20;99.90;;;;;;4991071;28;19930;-77
2022/10/04 06:20:54;;;;;;;;;;;8.10;99.90;;;;;;4989251;28;20020;-77
2022/10/04 06:23:22;;;;;;;;;;;8.10;99.90;;;;;;4977819;28;20008;-77
2022/10/04 06:25:50;;;;;;;;;;;8.10;99.90;;;;;;4981163;28;19958;-76
2022/10/04 06:28:19;;;;;;;;;;;8.10;99.90;;;;;;4988183;28;19933;-77
2022/10/04 06:31:17;;;;;;;;;;;8.10;99.90;;;;;;4989856;28;19957;-77
2022/10/04 06:33:54;;;;;;;;;;;8.10;99.90;;;;;;4942693;28;19977;-78
2022/10/04 06:36:29;;;;;;;;;;;8.10;99.90;;;;;;4974524;28;20421;-79
2022/10/04 06:39:04;;;;;;;;;;;8.10;99.90;;;;;;4995430;28;20175;-78
2022/10/04 06:41:39;;;;;;;;;;;8.10;99.90;;;;;;4975908;28;20289;-78
2022/10/04 06:44:13;;;;;;;;;;;8.00;99.90;;;;;;4985776;28;19948;-79
2022/10/04 06:46:45;;;;;;;;;;;8.00;99.90;;;;;;4984147;28;19979;-79
2022/10/04 06:49:20;;;;;;;;;;;8.00;99.90;;;;;;4980702;28;19926;-77
2022/10/04 06:52:04;;;;;;;;;;;8.00;99.90;;;;;;4983570;28;19976;-78
2022/10/04 06:54:38;;;;;;;;;;;8.00;99.90;;;;;;4980992;28;19977;-78
2022/10/04 06:57:17;;;;;;;;;;;8.00;99.90;;;;;;4979664;28;20388;-77
2022/10/04 06:59:57;;;;;;;;;;;8.00;99.90;;;;;;4977621;28;19941;-79
2022/10/04 07:02:27;;;;;;;;;;;8.00;99.90;;;;;;4981393;28;20016;-78
2022/10/04 07:04:56;;;;;;;;;;;8.00;99.90;;;;;;4996306;28;20005;-80
2022/10/04 07:07:34;;;;;;;;;;;7.90;99.90;;;;;;4986932;28;19949;-78
2022/10/04 07:10:05;;;;;;;;;;;7.90;99.90;;;;;;4985031;28;19933;-78
2022/10/04 07:12:33;;;;;;;;;;;8.00;99.90;;;;;;4989578;28;19926;-77
2022/10/04 07:15:02;;;;;;;;;;;8.00;99.90;;;;;;4976372;28;19926;-77
2022/10/04 07:17:31;;;;;;;;;;;8.00;99.90;;;;;;4992057;28;19929;-78
2022/10/04 07:19:59;;;;;;;;;;;8.00;99.90;;;;;;4993986;28;19926;-77
2022/10/04 07:22:30;;;;;;;;;;;8.00;99.90;;;;;;4989745;28;20024;-78
2022/10/04 07:25:02;;;;;;;;;;;8.00;99.90;;;;;;4982546;28;19961;-77
2022/10/04 07:27:31;;;;;;;;;;;8.10;99.90;;;;;;4986739;28;19930;-79
2022/10/04 07:29:58;;;;;;;;;;;8.00;99.90;;;;;;4982094;28;20307;-79
2022/10/04 07:32:27;;;;;;;;;;;8.10;99.90;;;;;;4980077;28;19989;-78
2022/10/04 07:34:58;;;;;;;;;;;8.00;99.90;;;;;;4980880;28;19925;-78
2022/10/04 07:37:27;;;;;;;;;;;8.00;99.90;;;;;;4996665;28;19969;-78
2022/10/04 07:39:58;;;;;;;;;;;8.00;99.90;;;;;;4989894;28;19930;-78
2022/10/04 07:42:27;;;;;;;;;;;8.10;99.90;;;;;;4992424;28;19986;-78
2022/10/04 07:45:08;;;;;;;;;;;8.00;99.90;;;;;;4991724;28;19934;-78
2022/10/04 07:47:35;;;;;;;;;;;8.00;99.90;;;;;;4987263;28;20040;-78
2022/10/04 07:50:14;;;;;;;;;;;8.10;99.90;;;;;;4992593;28;20281;-78
2022/10/04 07:52:51;;;;;;;;;;;8.10;99.90;;;;;;4983059;28;19937;-78
2022/10/04 07:55:37;;;;;;;;;;;8.10;99.90;;;;;;4984841;28;20387;-78
2022/10/04 07:58:09;;;;;;;;;;;8.10;99.90;;;;;;4986065;28;20414;-79
2022/10/04 08:00:43;;;;;;;;;;;8.10;99.90;;;;;;4986849;28;20372;-78
2022/10/04 08:03:19;;;;;;;;;;;8.10;99.90;;;;;;4986491;28;19929;-78
2022/10/04 08:05:48;;;;;;;;;;;8.20;99.90;;;;;;4985597;28;19937;-78
2022/10/04 08:08:23;;;;;;;;;;;8.20;99.90;;;;;;4985284;28;19956;-78
2022/10/04 08:10:55;;;;;;;;;;;8.20;99.90;;;;;;4990710;28;19969;-78
2022/10/04 08:13:27;;;;;;;;;;;8.20;99.90;;;;;;4983817;28;20040;-78
2022/10/04 08:16:00;;;;;;;;;;;8.20;99.90;;;;;;4990300;28;19925;-77
2022/10/04 08:18:36;;;;;;;;;;;8.20;99.90;;;;;;4984441;28;19961;-78
2022/10/04 08:21:05;;;;;;;;;;;8.30;99.90;;;;;;4982893;28;19957;-79
2022/10/04 08:23:48;;;;;;;;;;;8.30;99.90;;;;;;4983427;28;20045;-78
2022/10/04 08:26:21;;;;;;;;;;;8.20;99.90;;;;;;4984256;28;20280;-78
2022/10/04 08:31:40;;;;;;;;;;;8.40;99.90;;;;;;4980377;28;20784;-77
2022/10/04 08:34:15;;;;;;;;;;;8.40;99.90;;;;;;4988865;28;20232;-78
2022/10/04 08:36:48;;;;;;;;;;;8.30;99.90;;;;;;4985591;28;19933;-78
2022/10/04 08:39:28;;;;;;;;;;;8.30;99.90;;;;;;4981505;28;20303;-78
2022/10/04 08:42:07;;;;;;;;;;;8.30;99.90;;;;;;4980676;28;19933;-78
2022/10/04 08:44:56;;;;;;;;;;;8.40;99.90;;;;;;4988939;28;19984;-78
2022/10/04 08:47:39;;;;;;;;;;;8.40;99.90;;;;;;4988867;28;19969;-79
2022/10/04 08:50:20;;;;;;;;;;;8.40;99.90;;;;;;4986105;28;19976;-78
2022/10/04 08:52:51;;;;;;;;;;;8.40;99.90;;;;;;4983705;28;20448;-79
2022/10/04 08:55:36;;;;;;;;;;;8.40;99.90;;;;;;4987796;28;20413;-77
2022/10/04 08:58:13;;;;;;;;;;;8.40;99.90;;;;;;4980052;28;20299;-79
2022/10/04 09:01:07;;;;;;;;;;;8.50;99.90;;;;;;4985313;28;19926;-78
2022/10/04 09:04:00;;;;;;;;;;;8.50;99.90;;;;;;4954664;28;19992;-79
2022/10/04 09:06:35;;;;;;;;;;;8.50;99.90;;;;;;4981677;28;19932;-78
2022/10/04 09:09:38;;;;;;;;;;;8.50;99.90;;;;;;4987020;28;19926;-78
2022/10/04 09:12:12;;;;;;;;;;;8.60;99.90;;;;;;4982889;28;19933;-79
2022/10/04 09:14:55;;;;;;;;;;;8.60;99.90;;;;;;4989635;28;19926;-77
2022/10/04 09:17:22;;;;;;;;;;;8.60;99.90;;;;;;4980302;28;19933;-78
2022/10/04 09:19:54;;;;;;;;;;;8.60;99.90;;;;;;4988029;28;19973;-78
2022/10/04 09:22:31;;;;;;;;;;;8.70;99.90;;;;;;4980405;28;20123;-79
2022/10/04 09:25:10;;;;;;;;;;;8.70;99.90;;;;;;4985615;28;19986;-79
2022/10/04 09:27:46;;;;;;;;;;;8.70;99.90;;;;;;4983570;28;19926;-77
2022/10/04 09:30:18;;;;;;;;;;;8.80;99.90;;;;;;4990201;28;20193;-78
2022/10/04 09:33:02;;;;;;;;;;;8.80;99.90;;;;;;4978252;28;19976;-78
2022/10/04 09:35:41;;;;;;;;;;;8.80;99.90;;;;;;4978814;28;20332;-77
2022/10/04 09:38:30;;;;;;;;;;;8.80;99.90;;;;;;4990507;28;20374;-79
2022/10/04 09:41:06;;;;;;;;;;;8.80;99.90;;;;;;4983670;28;20278;-78
2022/10/04 09:43:42;;;;;;;;;;;8.90;99.90;;;;;;4981218;28;19962;-77
2022/10/04 09:46:20;;;;;;;;;;;8.90;99.90;;;;;;5002109;28;20366;-78
2022/10/04 09:48:53;;;;;;;;;;;8.90;99.90;;;;;;4989324;28;20780;-77
2022/10/04 09:51:44;;;;;;;;;;;8.90;99.90;;;;;;4982929;28;19930;-79
2022/10/04 09:54:15;;;;;;;;;;;8.90;99.90;;;;;;4983904;28;20044;-78
2022/10/04 09:57:01;;;;;;;;;;;8.90;99.90;;;;;;4984463;28;19973;-78
2022/10/04 09:59:52;;;;;;;;;;;9.00;99.90;;;;;;4987213;28;19930;-78
2022/10/04 10:02:37;;;;;;;;;;;9.00;99.90;;;;;;4963987;28;19961;-78
2022/10/04 10:05:18;;;;;;;;;;;9.00;99.90;;;;;;4983029;28;19926;-77
2022/10/04 10:07:48;;;;;;;;;;;9.00;99.90;;;;;;4982758;28;19948;-78
2022/10/04 10:16:04;;;;;;;;;;;9.10;99.90;;;;;;4972348;28;22345;-79
2022/10/04 10:18:40;;;;;;;;;;;9.10;99.90;;;;;;4979273;28;19934;-78
2022/10/04 10:21:16;;;;;;;;;;;9.10;99.90;;;;;;4981647;28;19972;-78
2022/10/04 10:24:00;;;;;;;;;;;9.20;99.90;;;;;;4984506;28;20002;-79
2022/10/04 10:26:32;;;;;;;;;;;9.20;99.90;;;;;;4970856;28;19969;-78
2022/10/04 10:29:07;;;;;;;;;;;9.20;99.90;;;;;;4988588;28;19958;-78
2022/10/04 10:31:53;;;;;;;;;;;9.30;99.90;;;;;;4979643;28;19969;-77
2022/10/04 10:34:36;;;;;;;;;;;9.30;99.90;;;;;;4995265;28;19926;-78
2022/10/04 10:37:08;;;;;;;;;;;9.30;99.90;;;;;;4981510;28;19925;-78
2022/10/04 10:39:50;;;;;;;;;;;9.30;99.90;;;;;;4988626;28;19969;-78
2022/10/04 10:42:29;;;;;;;;;;;9.40;99.90;;;;;;4973627;28;19926;-77
2022/10/04 10:45:08;;;;;;;;;;;9.40;99.90;;;;;;4984707;28;19934;-79
2022/10/04 10:47:39;;;;;;;;;;;9.40;99.90;;;;;;4989001;28;20374;-77
2022/10/04 10:50:16;;;;;;;;;;;9.50;99.90;;;;;;4991569;28;20078;-78
2022/10/04 10:53:09;;;;;;;;;;;9.50;99.90;;;;;;4990514;28;20399;-78
2022/10/04 10:56:00;;;;;;;;;;;9.50;99.90;;;;;;4979370;28;20403;-77
2022/10/04 10:58:39;;;;;;;;;;;9.50;99.90;;;;;;5001432;28;19952;-78
2022/10/04 11:01:25;;;;;;;;;;;9.60;99.90;;;;;;4984613;28;19972;-78
2022/10/04 11:04:06;;;;;;;;;;;9.60;99.90;;;;;;4985365;28;19992;-78
2022/10/04 11:06:50;;;;;;;;;;;9.60;99.90;;;;;;4991452;28;20348;-78
2022/10/04 11:09:28;;;;;;;;;;;9.60;99.90;;;;;;4994689;28;20379;-78
2022/10/04 11:12:09;;;;;;;;;;;9.70;99.90;;;;;;4992578;28;20360;-78
2022/10/04 11:14:53;;;;;;;;;;;9.70;99.90;;;;;;4978687;28;19936;-79
2022/10/04 11:17:38;;;;;;;;;;;9.70;99.90;;;;;;4984308;28;19926;-78
2022/10/04 11:20:35;;;;;;;;;;;9.70;99.90;;;;;;4988717;28;19950;-77
2022/10/04 11:23:26;;;;;;;;;;;9.70;99.90;;;;;;4982354;28;19984;-77
2022/10/04 11:26:16;;;;;;;;;;;9.80;99.90;;;;;;4975427;28;19937;-78
2022/10/04 11:28:49;;;;;;;;;;;9.80;99.90;;;;;;4992709;28;20372;-78
2022/10/04 11:31:31;;;;;;;;;;;9.80;99.90;;;;;;4982549;28;20370;-78
2022/10/04 11:34:16;;;;;;;;;;;9.80;99.90;;;;;;4989664;28;20339;-77
2022/10/04 11:36:56;;;;;;;;;;;9.80;99.90;;;;;;4963460;28;19980;-78
2022/10/04 11:39:37;;;;;;;;;;;9.90;99.90;;;;;;4986325;28;19925;-79
2022/10/04 11:42:08;;;;;;;;;;;9.90;99.90;;;;;;4988411;28;19926;-77
2022/10/04 11:44:54;;;;;;;;;;;9.90;99.90;;;;;;4993675;28;20245;-78
2022/10/04 11:47:28;;;;;;;;;;;9.90;99.90;;;;;;4986497;28;19934;-77
2022/10/04 11:50:02;;;;;;;;;;;9.90;99.90;;;;;;5000091;28;19929;-78
2022/10/04 11:52:48;;;;;;;;;;;10.00;99.90;;;;;;4987118;28;20296;-77
2022/10/04 11:55:45;;;;;;;;;;;10.00;99.90;;;;;;4981688;28;20319;-78
2022/10/04 11:58:16;;;;;;;;;;;10.00;99.90;;;;;;4984611;28;19926;-78
2022/10/04 12:01:06;;;;;;;;;;;10.10;99.90;;;;;;4982604;28;20415;-78
2022/10/04 12:03:50;;;;;;;;;;;10.10;99.90;;;;;;4980691;28;19929;-78
2022/10/04 12:06:33;;;;;;;;;;;10.10;99.90;;;;;;4998049;28;19926;-77
2022/10/04 12:09:04;;;;;;;;;;;10.10;99.90;;;;;;4979433;28;19972;-78
2022/10/04 12:14:37;;;;;;;;;;;10.20;99.90;;;;;;4987714;28;20022;-78
2022/10/04 12:17:22;;;;;;;;;;;10.30;99.90;;;;;;4985017;28;19969;-77
2022/10/04 12:20:07;;;;;;;;;;;10.30;99.90;;;;;;4979510;28;19930;-77
2022/10/04 12:22:41;;;;;;;;;;;10.30;99.90;;;;;;4983480;28;19925;-78
2022/10/04 12:25:29;;;;;;;;;;;10.40;99.90;;;;;;4982420;28;19965;-78
2022/10/04 12:28:10;;;;;;;;;;;10.40;99.90;;;;;;4961333;28;19952;-78
2022/10/04 12:30:43;;;;;;;;;;;10.40;99.90;;;;;;4982004;28;19930;-77
2022/10/04 12:33:14;;;;;;;;;;;10.50;99.90;;;;;;4983932;28;19926;-78
2022/10/04 12:35:59;;;;;;;;;;;10.50;99.90;;;;;;4983370;28;19957;-78
2022/10/04 12:38:42;;;;;;;;;;;10.50;99.90;;;;;;4988872;28;19929;-77
2022/10/04 12:41:15;;;;;;;;;;;10.60;99.90;;;;;;4981048;28;19981;-78
2022/10/04 12:43:44;;;;;;;;;;;10.60;99.90;;;;;;5002177;28;19980;-78
2022/10/04 12:46:22;;;;;;;;;;;10.70;99.90;;;;;;4994947;28;19934;-78
2022/10/04 12:49:04;;;;;;;;;;;10.70;99.90;;;;;;4983374;28;19930;-78
2022/10/04 12:51:36;;;;;;;;;;;10.70;99.90;;;;;;4984211;28;19958;-78
2022/10/04 12:54:12;;;;;;;;;;;10.80;99.90;;;;;;4978158;28;19941;-78
2022/10/04 12:56:45;;;;;;;;;;;10.90;99.90;;;;;;4985959;28;19929;-77
2022/10/04 12:59:27;;;;;;;;;;;10.90;99.90;;;;;;4984307;28;20365;-77
2022/10/04 13:02:00;;;;;;;;;;;11.00;99.90;;;;;;4983539;28;20362;-78
2022/10/04 13:04:33;;;;;;;;;;;11.00;99.90;;;;;;4981017;28;19926;-78
2022/10/04 13:07:05;;;;;;;;;;;11.10;99.90;;;;;;4983412;28;20016;-77
2022/10/04 13:09:37;;;;;;;;;;;11.10;99.90;;;;;;4989679;28;19926;-78
2022/10/04 13:12:11;;;;;;;;;;;11.20;99.90;;;;;;4983050;28;19926;-77
2022/10/04 13:14:44;;;;;;;;;;;11.20;99.90;;;;;;4982629;28;20391;-76
2022/10/04 13:17:18;;;;;;;;;;;11.20;99.90;;;;;;4986600;28;20016;-77
2022/10/04 13:19:51;;;;;;;;;;;11.30;99.90;;;;;;4989569;28;20434;-77
2022/10/04 13:22:25;;;;;;;;;;;11.30;99.90;;;;;;4986735;28;20349;-76
2022/10/04 13:24:57;;;;;;;;;;;11.40;99.90;;;;;;4982990;28;20299;-77
2022/10/04 13:27:29;;;;;;;;;;;11.40;99.90;;;;;;4987401;28;20470;-77
2022/10/04 13:30:01;;;;;;;;;;;11.50;99.90;;;;;;4998435;28;20451;-77
2022/10/04 13:32:30;;;;;;;;;;;11.50;99.90;;;;;;4980533;28;19969;-77
2022/10/04 13:35:03;;;;;;;;;;;11.50;99.90;;;;;;4984703;28;20410;-77
2022/10/04 13:37:34;;;;;;;;;;;11.60;99.90;;;;;;4986332;28;19926;-76
2022/10/04 13:40:14;;;;;;;;;;;11.60;99.90;;;;;;4982418;28;19925;-77
2022/10/04 13:42:51;;;;;;;;;;;11.70;99.90;;;;;;4983652;28;19929;-77
2022/10/04 13:45:33;;;;;;;;;;;11.70;99.90;;;;;;4973028;28;19980;-77
2022/10/04 13:48:09;;;;;;;;;;;11.80;99.90;;;;;;4986772;28;19969;-77
2022/10/04 13:50:57;;;;;;;;;;;11.90;99.90;;;;;;4984068;28;20361;-77
2022/10/04 13:56:39;;;;;;;;;;;12.00;99.90;;;;;;5000945;28;19987;-84
2022/10/04 13:59:09;;;;;;;;;;;12.10;99.90;;;;;;4979541;28;20369;-82
2022/10/04 14:01:51;;;;;;;;;;;12.20;99.90;;;;;;4999252;28;19929;-76
2022/10/04 14:04:42;;;;;;;;;;;12.20;99.90;;;;;;4979974;28;19925;-76
2022/10/04 14:07:21;;;;;;;;;;;12.30;99.90;;;;;;4986282;28;19980;-77
2022/10/04 14:10:09;;;;;;;;;;;12.30;99.90;;;;;;4979659;28;19929;-77
2022/10/04 14:13:04;;;;;;;;;;;12.30;99.90;;;;;;4974509;28;19926;-77
2022/10/04 14:15:46;;;;;;;;;;;12.40;99.90;;;;;;4975868;28;19984;-77
2022/10/04 14:18:40;;;;;;;;;;;12.40;99.90;;;;;;4979708;28;19933;-77
2022/10/04 14:21:31;;;;;;;;;;;12.50;99.90;;;;;;4978668;28;19996;-76
2022/10/04 14:24:17;;;;;;;;;;;12.50;99.90;;;;;;4982172;28;19937;-77
2022/10/04 14:27:01;;;;;;;;;;;12.60;99.90;;;;;;4979461;28;20431;-76
2022/10/04 14:29:40;;;;;;;;;;;12.60;99.90;;;;;;4980029;28;20019;-77
2022/10/04 14:32:31;;;;;;;;;;;12.60;99.90;;;;;;4978473;28;19926;-76
2022/10/04 14:35:01;;;;;;;;;;;12.70;99.90;;;;;;4984228;28;19961;-77
2022/10/04 14:37:38;;;;;;;;;;;12.70;99.90;;;;;;4977366;28;20380;-76
2022/10/04 14:40:17;;;;;;;;;;;12.80;99.90;;;;;;4981489;28;19989;-76
2022/10/04 14:42:57;;;;;;;;;;;12.80;99.90;;;;;;4981714;28;19961;-78
2022/10/04 14:45:28;;;;;;;;;;;12.80;99.90;;;;;;4983215;28;20299;-76
2022/10/04 14:48:08;;;;;;;;;;;12.90;99.90;;;;;;4981011;28;20012;-77
2022/10/04 14:50:44;;;;;;;;;;;12.90;99.90;;;;;;4983554;28;20017;-76
2022/10/04 14:53:23;;;;;;;;;;;12.90;99.90;;;;;;4977958;28;20020;-77
2022/10/04 14:56:14;;;;;;;;;;;13.00;99.90;;;;;;4978680;28;19929;-77
2022/10/04 14:58:49;;;;;;;;;;;13.00;99.90;;;;;;4967716;28;19953;-76
2022/10/04 15:01:19;;;;;;;;;;;13.10;99.90;;;;;;4982967;28;20357;-77
2022/10/04 15:03:52;;;;;;;;;;;13.10;99.90;;;;;;4975378;28;19930;-76
2022/10/04 15:06:26;;;;;;;;;;;13.10;99.90;;;;;;4979794;28;19981;-77
2022/10/04 15:09:06;;;;;;;;;;;13.30;99.90;;;;;;4973434;28;20031;-76
2022/10/04 15:11:42;;;;;;;;;;;13.30;99.90;;;;;;4976389;28;19926;-76
2022/10/04 15:14:35;;;;;;;;;;;13.30;99.90;;;;;;4980336;28;19984;-76
2022/10/04 15:17:05;;;;;;;;;;;13.30;99.90;;;;;;4981477;28;20029;-77
2022/10/04 15:19:35;;;;;;;;;;;13.40;99.90;;;;;;4986815;28;20388;-76
2022/10/04 15:22:10;;;;;;;;;;;13.40;99.90;;;;;;4976790;28;19941;-76
2022/10/04 15:24:45;;;;;;;;;;;13.40;99.90;;;;;;4992155;28;19961;-77
2022/10/04 15:27:37;;;;;;;;;;;13.40;99.90;;;;;;4977328;28;20398;-76
2022/10/04 15:30:18;;;;;;;;;;;13.50;99.90;;;;;;4972334;28;19934;-76